createdAt,value
2022-11-29T00:00:27.227Z,7.9
2022-11-29T00:06:47.180Z,7.9
2022-11-29T00:13:10.207Z,7.91
2022-11-29T00:19:30.258Z,7.91
2022-11-29T00:25:53.185Z,7.9
2022-11-29T00:32:13.220Z,7.89
2022-11-29T00:38:36.206Z,7.89
2022-11-29T00:44:56.184Z,7.87
2022-11-29T00:51:19.256Z,7.87
2022-11-29T00:57:39.267Z,7.85
2022-11-29T01:04:02.179Z,7.86
2022-11-29T01:10:22.222Z,7.88
2022-11-29T01:16:45.292Z,7.88
2022-11-29T01:23:05.193Z,7.9
2022-11-29T01:29:28.146Z,7.91
2022-11-29T01:35:48.198Z,7.93
2022-11-29T01:42:11.157Z,7.93
2022-11-29T01:48:31.270Z,7.92
2022-11-29T01:54:54.178Z,7.91
2022-11-29T02:01:15.008Z,7.9
2022-11-29T02:07:37.187Z,7.9
2022-11-29T02:13:57.292Z,7.92
2022-11-29T02:20:20.197Z,7.94
2022-11-29T02:26:40.318Z,7.96
2022-11-29T02:33:03.254Z,7.99
2022-11-29T02:39:23.182Z,8
2022-11-29T02:45:46.339Z,8.01
2022-11-29T02:52:07.116Z,8.02
2022-11-29T02:58:30.195Z,8.03
2022-11-29T03:04:50.228Z,8.04
2022-11-29T03:11:13.263Z,8.05
2022-11-29T03:17:33.232Z,8.05
2022-11-29T03:23:56.259Z,8.07
2022-11-29T03:30:16.215Z,8.09
2022-11-29T03:36:39.246Z,8.11
2022-11-29T03:42:59.183Z,8.12
2022-11-29T03:49:22.303Z,8.14
2022-11-29T03:55:42.192Z,8.13
2022-11-29T04:02:05.197Z,8.09
2022-11-29T04:08:25.186Z,8.04
2022-11-29T04:14:48.255Z,8.01
2022-11-29T04:32:52.583Z,7.95
2022-11-29T04:39:12.162Z,7.95
2022-11-29T04:45:35.224Z,7.97
2022-11-29T04:51:55.207Z,8
2022-11-29T04:58:18.246Z,8.01
2022-11-29T05:04:38.145Z,8
2022-11-29T05:11:01.194Z,8.03
2022-11-29T05:17:21.458Z,8.05
2022-11-29T05:23:44.183Z,8.07
2022-11-29T05:30:04.208Z,8.09
2022-11-29T05:36:27.144Z,8.12
2022-11-29T05:42:47.181Z,8.15
2022-11-29T05:49:10.286Z,8.18
2022-11-29T05:55:30.189Z,8.2
2022-11-29T06:01:53.273Z,8.2
2022-11-29T06:08:13.189Z,8.23
2022-11-29T06:14:36.194Z,8.25
2022-11-29T06:20:56.153Z,8.23
2022-11-29T06:27:19.178Z,8.24
2022-11-29T06:33:39.165Z,8.27
2022-11-29T06:40:02.153Z,8.29
2022-11-29T06:46:22.242Z,8.31
2022-11-29T06:52:45.178Z,8.34
2022-11-29T06:59:05.163Z,8.37
2022-11-29T07:05:28.218Z,8.39
2022-11-29T07:11:48.177Z,8.39
2022-11-29T07:18:11.175Z,8.4
2022-11-29T07:24:31.280Z,8.42
2022-11-29T07:30:54.203Z,8.43
2022-11-29T07:37:14.212Z,8.43
2022-11-29T07:43:37.179Z,8.43
2022-11-29T07:49:57.175Z,8.44
2022-11-29T07:56:20.206Z,8.45
2022-11-29T08:02:40.333Z,8.47
2022-11-29T08:09:03.310Z,8.47
2022-11-29T08:15:23.197Z,8.49
2022-11-29T08:21:46.226Z,8.5
2022-11-29T08:28:06.184Z,8.53
2022-11-29T08:34:29.175Z,8.55
2022-11-29T08:40:49.249Z,8.57
2022-11-29T08:47:12.166Z,8.6
2022-11-29T08:53:32.179Z,8.67
2022-11-29T08:59:55.222Z,8.7
2022-11-29T09:06:15.420Z,8.68
2022-11-29T09:12:38.255Z,8.68
2022-11-29T09:18:58.246Z,8.69
2022-11-29T09:25:21.224Z,8.69
2022-11-29T09:31:41.356Z,8.69
2022-11-29T09:49:10.116Z,8.71
2022-11-29T09:55:30.149Z,8.75
2022-11-29T10:01:53.201Z,8.85
2022-11-29T10:08:13.193Z,8.91
2022-11-29T10:14:36.154Z,8.96
2022-11-29T10:20:57.220Z,9
2022-11-29T10:27:20.268Z,9.13
2022-11-29T10:33:40.226Z,9.23
2022-11-29T10:40:03.240Z,9.27
2022-11-29T10:46:23.218Z,9.28
2022-11-29T10:52:46.216Z,9.32
2022-11-29T10:59:06.170Z,9.39
2022-11-29T11:05:29.292Z,9.45
2022-11-29T11:11:50.226Z,9.44
2022-11-29T11:18:13.258Z,9.5
2022-11-29T11:24:33.207Z,9.47
2022-11-29T11:30:56.331Z,9.43
2022-11-29T11:37:16.193Z,9.46
2022-11-29T11:43:39.186Z,9.46
2022-11-29T11:49:59.185Z,9.5
2022-11-29T11:56:22.178Z,9.53
2022-11-29T12:02:42.274Z,9.5
2022-11-29T12:09:05.211Z,9.44
2022-11-29T12:15:25.194Z,9.37
2022-11-29T12:21:48.195Z,9.32
2022-11-29T12:28:08.177Z,9.31
2022-11-29T12:34:31.181Z,9.27
2022-11-29T12:40:51.501Z,9.25
2022-11-29T12:47:35.012Z,9.26
2022-11-29T12:53:34.184Z,9.26
2022-11-29T12:59:57.200Z,9.25
2022-11-29T13:06:17.271Z,9.25
2022-11-29T13:12:40.221Z,9.24
2022-11-29T13:19:00.233Z,9.21
2022-11-29T13:25:23.177Z,9.29
2022-11-29T13:31:43.256Z,9.39
2022-11-29T13:38:06.211Z,9.46
2022-11-29T13:44:26.179Z,9.43
2022-11-29T13:50:49.237Z,9.4
2022-11-29T13:57:09.208Z,9.34
2022-11-29T14:03:32.220Z,9.31
2022-11-29T14:09:52.168Z,9.25
2022-11-29T14:16:15.254Z,9.22
2022-11-29T14:22:35.237Z,9.21
2022-11-29T14:28:58.182Z,9.21
2022-11-29T14:35:18.186Z,9.21
2022-11-29T14:51:10.191Z,9.26
2022-11-29T14:57:30.174Z,9.21
2022-11-29T15:03:53.236Z,9.16
2022-11-29T15:10:13.313Z,9.07
2022-11-29T15:16:36.212Z,9
2022-11-29T15:22:56.235Z,8.98
2022-11-29T15:29:19.192Z,8.96
2022-11-29T15:35:39.208Z,8.89
2022-11-29T15:42:02.175Z,8.86
2022-11-29T15:48:22.206Z,8.81
2022-11-29T15:54:45.632Z,8.74
2022-11-29T16:01:05.262Z,8.67
2022-11-29T16:07:28.234Z,8.62
2022-11-29T16:13:48.183Z,8.57
2022-11-29T16:20:11.206Z,8.52
2022-11-29T16:26:31.220Z,8.46
2022-11-29T16:32:54.350Z,8.39
2022-11-29T16:39:14.357Z,8.33
2022-11-29T16:45:37.282Z,8.27
2022-11-29T16:51:57.239Z,8.21
2022-11-29T16:58:20.215Z,8.2
2022-11-29T17:04:40.175Z,8.14
2022-11-29T17:11:03.201Z,8.01
2022-11-29T17:17:23.180Z,7.88
2022-11-29T17:23:46.293Z,7.74
2022-11-29T17:30:06.125Z,7.6
2022-11-29T17:36:29.179Z,7.49
2022-11-29T17:42:49.236Z,7.34
2022-11-29T17:49:12.212Z,7.18
2022-11-29T17:55:32.244Z,7.06
2022-11-29T18:01:55.265Z,6.9
2022-11-29T18:08:15.151Z,6.78
2022-11-29T18:14:38.181Z,6.7
2022-11-29T18:20:58.193Z,6.79
2022-11-29T18:27:21.216Z,6.93
2022-11-29T18:33:41.207Z,7.05
2022-11-29T18:40:04.170Z,7.17
2022-11-29T18:46:24.212Z,7.26
2022-11-29T18:52:47.214Z,7.35
2022-11-29T18:59:07.247Z,7.43
2022-11-29T19:05:30.147Z,7.47
2022-11-29T19:11:50.220Z,7.49
2022-11-29T19:18:13.247Z,7.49
2022-11-29T19:24:33.182Z,7.51
2022-11-29T19:30:56.244Z,7.49
2022-11-29T19:37:16.198Z,7.49
2022-11-29T19:43:39.197Z,7.47
2022-11-29T20:00:05.093Z,7.52
2022-11-29T20:06:25.111Z,7.59
2022-11-29T20:12:48.200Z,7.65
2022-11-29T20:19:08.212Z,7.72
2022-11-29T20:25:31.162Z,7.75
2022-11-29T20:31:51.585Z,7.76
2022-11-29T20:38:14.171Z,7.75
2022-11-29T20:44:34.197Z,7.74
2022-11-29T20:50:57.229Z,7.7
2022-11-29T20:57:17.231Z,7.67
2022-11-29T21:03:40.251Z,7.67
2022-11-29T21:10:01.456Z,7.69
2022-11-29T21:16:23.268Z,7.72
2022-11-29T21:22:43.166Z,7.72
2022-11-29T21:29:06.163Z,7.69
2022-11-29T21:35:26.271Z,7.65
2022-11-29T21:41:49.181Z,7.63
2022-11-29T21:48:09.219Z,7.64
2022-11-29T21:54:32.188Z,7.62
2022-11-29T22:00:52.180Z,7.6
2022-11-29T22:07:15.179Z,7.62
2022-11-29T22:13:35.207Z,7.65
2022-11-29T22:19:58.216Z,7.69
2022-11-29T22:26:18.161Z,7.74
2022-11-29T22:32:41.285Z,7.73
2022-11-29T22:39:01.212Z,7.74
2022-11-29T22:45:24.148Z,7.63
2022-11-29T22:51:44.281Z,7.57
2022-11-29T22:58:07.205Z,7.53
2022-11-29T23:21:05.172Z,7.52
2022-11-29T23:27:25.252Z,7.5
2022-11-29T23:33:48.156Z,7.51
2022-11-29T23:40:08.309Z,7.51
2022-11-29T23:46:31.218Z,7.52
2022-11-29T23:52:51.194Z,7.56
2022-11-29T23:59:14.284Z,7.55
